Time;durP1;ratioP1;P1;durP2;ratioP2;P2;SDS_P1;SDS_P2;PMS_P1;PMS_P2;Temp;Humidity;BMP_temperature;BMP_pressure;BME280_temperature;BME280_humidity;BME280_pressure;Samples;Min_cycle;Max_cycle;Signal;HPM_P1;HPM_P2
2022/03/21 00:00:27;;;;;;;9.57;7.15;;;;;;;20.06;31.65;102832.22;7313670;19;130345;-48
2022/03/21 00:02:57;;;;;;;8.82;6.70;;;;;;;20.06;31.59;102837.75;7313097;19;129422;-51
2022/03/21 00:05:25;;;;;;;10.32;6.88;;;;;;;20.03;31.75;102831.78;7313226;19;130158;-49
2022/03/21 00:07:52;;;;;;;9.18;7.22;;;;;;;20.00;31.81;102835.81;7313227;19;130743;-51
2022/03/21 00:10:19;;;;;;;8.98;6.78;;;;;;;19.98;31.38;102835.16;7312635;19;130257;-48
2022/03/21 00:12:45;;;;;;;10.80;7.05;;;;;;;19.95;31.65;102828.06;7310149;19;128898;-50
2022/03/21 00:15:12;;;;;;;9.25;6.82;;;;;;;19.93;31.34;102832.13;7309946;19;129589;-49
2022/03/21 00:17:40;;;;;;;10.00;7.28;;;;;;;19.90;31.35;102832.53;7312303;19;129871;-52
2022/03/21 00:20:09;;;;;;;10.23;7.50;;;;;;;19.88;31.35;102835.53;7311372;19;129304;-51
2022/03/21 00:22:37;;;;;;;9.60;7.18;;;;;;;19.85;31.75;102835.94;7309651;19;130048;-49
2022/03/21 00:25:05;;;;;;;8.18;6.72;;;;;;;19.83;31.42;102835.28;7311931;19;134521;-47
2022/03/21 00:27:34;;;;;;;8.85;7.20;;;;;;;19.82;31.74;102841.91;7311847;19;130417;-52
2022/03/21 00:30:01;;;;;;;9.70;6.78;;;;;;;19.81;31.59;102837.44;7311279;19;129666;-47
2022/03/21 00:32:28;;;;;;;9.50;7.28;;;;;;;19.79;31.58;102831.25;7311162;19;129377;-49
2022/03/21 00:34:55;;;;;;;10.27;7.68;;;;;;;19.78;31.65;102835.91;7312861;19;129374;-50
2022/03/21 00:37:23;;;;;;;9.95;7.10;;;;;;;19.77;31.64;102838.91;7311750;19;130070;-49
2022/03/21 00:39:51;;;;;;;8.77;7.07;;;;;;;19.75;31.67;102835.50;7313616;19;129172;-52
2022/03/21 00:42:18;;;;;;;9.93;7.53;;;;;;;19.73;31.65;102837.59;7311517;19;130538;-48
2022/03/21 00:44:45;;;;;;;9.02;7.00;;;;;;;19.70;31.58;102838.88;7309576;19;129721;-53
2022/03/21 00:47:14;;;;;;;11.13;7.60;;;;;;;19.68;31.47;102836.34;7310727;19;130484;-50
2022/03/21 00:49:41;;;;;;;9.27;7.03;;;;;;;19.65;31.29;102836.75;7311204;19;128715;-49
2022/03/21 00:52:08;;;;;;;8.45;6.63;;;;;;;19.63;31.17;102833.31;7309858;19;129793;-50
2022/03/21 00:54:35;;;;;;;9.43;7.50;;;;;;;19.62;31.06;102839.06;7311060;19;129908;-52
2022/03/21 00:57:02;;;;;;;9.10;7.90;;;;;;;19.61;31.00;102840.13;7309957;19;131106;-48
2022/03/21 00:59:29;;;;;;;9.25;7.40;;;;;;;19.59;31.07;102832.00;7312067;19;129091;-52
2022/03/21 01:01:56;;;;;;;9.82;7.75;;;;;;;19.57;31.48;102833.28;7311779;19;130827;-49
2022/03/21 01:04:23;;;;;;;9.50;8.02;;;;;;;19.56;31.44;102831.56;7311318;19;129660;-51
2022/03/21 01:06:50;;;;;;;9.35;7.20;;;;;;;19.53;31.46;102835.63;7311877;19;132134;-48
2022/03/21 01:09:17;;;;;;;9.63;7.40;;;;;;;19.52;31.19;102842.22;7311773;19;129087;-50
2022/03/21 01:11:44;;;;;;;9.60;7.65;;;;;;;19.50;31.40;102834.13;7311374;19;130350;-48
2022/03/21 01:14:12;;;;;;;9.90;7.85;;;;;;;19.49;30.90;102837.06;7308409;19;129628;-50
2022/03/21 01:16:39;;;;;;;10.13;7.88;;;;;;;19.47;31.33;102845.63;7311505;19;129958;-51
2022/03/21 01:19:06;;;;;;;8.13;7.32;;;;;;;19.45;31.05;102838.53;7310425;19;129347;-48
2022/03/21 01:21:33;;;;;;;9.45;7.65;;;;;;;19.44;30.92;102840.47;7307823;19;129125;-49
2022/03/21 01:24:01;;;;;;;10.35;7.53;;;;;;;19.43;31.46;102837.91;7310379;19;129822;-47
2022/03/21 01:26:27;;;;;;;9.43;7.93;;;;;;;19.41;31.04;102840.03;7304828;19;130309;-53
2022/03/21 01:28:56;;;;;;;9.82;7.68;;;;;;;19.39;30.79;102834.66;7310055;19;130080;-48
2022/03/21 01:31:23;;;;;;;8.82;7.93;;;;;;;19.37;30.88;102840.44;7308570;19;130190;-49
2022/03/21 01:33:53;;;;;;;9.48;7.95;;;;;;;19.36;30.82;102838.72;7305700;19;131019;-49
2022/03/21 01:36:20;;;;;;;9.00;8.10;;;;;;;19.34;30.62;102840.00;7307188;19;129947;-49
2022/03/21 01:38:47;;;;;;;9.85;8.63;;;;;;;19.32;30.64;102840.19;7309266;19;129350;-48
2022/03/21 01:41:15;;;;;;;10.55;8.80;;;;;;;19.30;30.62;102836.78;7309591;19;130640;-50
2022/03/21 01:44:05;;;;;;;11.80;8.68;;;;;;;19.30;30.99;102838.69;7308177;19;130533;-48
2022/03/21 01:46:33;;;;;;;10.00;8.40;;;;;;;19.27;30.58;102841.84;7309809;19;129547;-51
2022/03/21 01:49:01;;;;;;;11.48;8.05;;;;;;;19.26;30.86;102841.00;7309094;19;129519;-50
2022/03/21 01:51:29;;;;;;;10.18;8.43;;;;;;;19.25;30.95;102838.44;7308041;19;130086;-50
2022/03/21 01:56:46;;;;;;;10.40;8.60;;;;;;;19.21;30.95;102844.41;7308168;19;129483;-51
2022/03/21 01:59:14;;;;;;;11.35;8.10;;;;;;;19.20;30.98;102844.59;7309117;19;129610;-47
2022/03/21 02:01:42;;;;;;;12.85;8.70;;;;;;;19.17;30.58;102839.44;7308351;19;129064;-51
2022/03/21 02:04:10;;;;;;;9.85;8.80;;;;;;;19.17;30.70;102839.44;7313368;19;130412;-51
2022/03/21 02:06:37;;;;;;;12.68;9.15;;;;;;;19.16;30.69;102843.25;7315932;19;129762;-53
2022/03/21 02:09:09;;;;;;;9.68;8.60;;;;;;;19.15;30.46;102847.09;7316168;19;129301;-49
2022/03/21 02:11:37;;;;;;;9.88;8.88;;;;;;;19.13;30.35;102843.66;7316375;19;129549;-51
2022/03/21 02:14:07;;;;;;;11.50;9.38;;;;;;;19.11;30.41;102846.66;7314156;19;130050;-47
2022/03/21 02:16:36;;;;;;;10.10;8.68;;;;;;;19.11;30.75;102851.31;7315814;19;129920;-52
2022/03/21 02:19:18;;;;;;;11.25;9.07;;;;;;;19.09;30.72;102843.22;7315866;19;129798;-50
2022/03/21 02:22:03;;;;;;;10.23;8.85;;;;;;;19.07;30.50;102846.22;7313929;19;129303;-47
2022/03/21 02:24:56;;;;;;;11.00;9.82;;;;;;;19.05;30.60;102845.53;7314887;19;129682;-49
2022/03/21 02:27:28;;;;;;;12.65;9.95;;;;;;;19.04;30.18;102841.06;7313624;19;129610;-49
2022/03/21 02:29:56;;;;;;;10.77;9.23;;;;;;;19.03;30.47;102850.44;7315627;19;130777;-47
2022/03/21 02:32:22;;;;;;;11.00;9.48;;;;;;;19.01;30.53;102852.56;7314735;19;129490;-52
2022/03/21 02:34:50;;;;;;;10.63;8.88;;;;;;;19.00;30.55;102850.84;7312551;19;129685;-49
2022/03/21 02:37:18;;;;;;;13.63;9.05;;;;;;;18.99;30.39;102849.13;7314683;19;130198;-50
2022/03/21 02:39:45;;;;;;;12.73;9.93;;;;;;;18.99;30.32;102851.03;7314592;19;129010;-54
2022/03/21 02:42:13;;;;;;;11.02;9.63;;;;;;;18.97;30.52;102854.00;7314677;19;129215;-54
2022/03/21 02:44:43;;;;;;;10.93;9.45;;;;;;;18.96;30.57;102845.91;7314835;19;131525;-51
2022/03/21 02:47:10;;;;;;;12.02;10.43;;;;;;;18.96;30.41;102848.66;7313910;19;130197;-47
2022/03/21 02:49:37;;;;;;;12.60;9.85;;;;;;;18.95;30.36;102850.59;7314929;19;129392;-49
2022/03/21 02:52:06;;;;;;;11.00;9.43;;;;;;;18.95;30.20;102852.50;7313506;19;129078;-47
2022/03/21 02:54:34;;;;;;;10.07;9.02;;;;;;;18.93;30.44;102849.94;7311690;19;129506;-50
2022/03/21 02:57:01;;;;;;;11.15;9.45;;;;;;;18.90;30.34;102845.63;7312978;19;129638;-49
2022/03/21 02:59:28;;;;;;;13.65;10.68;;;;;;;18.89;30.00;102841.13;7315012;19;129318;-50
2022/03/21 03:01:55;;;;;;;12.00;9.88;;;;;;;18.89;30.18;102848.63;7313831;19;128878;-50
2022/03/21 03:04:26;;;;;;;11.05;9.88;;;;;;;18.88;30.19;102853.31;7313791;19;129833;-52
2022/03/21 03:06:53;;;;;;;11.23;9.75;;;;;;;18.87;30.24;102850.72;7313694;19;130495;-48
2022/03/21 03:09:20;;;;;;;12.82;9.70;;;;;;;18.85;30.35;102852.84;7314497;19;128982;-47
2022/03/21 03:11:47;;;;;;;12.48;10.48;;;;;;;18.84;30.04;102845.56;7314446;19;129190;-52
2022/03/21 03:14:14;;;;;;;11.95;10.48;;;;;;;18.83;30.05;102843.88;7312331;19;131106;-49
2022/03/21 03:16:41;;;;;;;11.43;10.10;;;;;;;18.82;30.36;102847.72;7313830;19;130533;-53
2022/03/21 03:19:08;;;;;;;12.43;10.05;;;;;;;18.81;30.16;102857.09;7310047;19;130206;-51
2022/03/21 03:21:37;;;;;;;11.65;9.77;;;;;;;18.79;30.19;102853.66;7310734;19;129316;-52
2022/03/21 03:24:05;;;;;;;12.32;10.30;;;;;;;18.78;30.10;102861.09;7312616;19;130353;-52
2022/03/21 03:26:32;;;;;;;13.57;10.60;;;;;;;18.76;30.18;102855.75;7312927;19;129446;-49
2022/03/21 03:28:58;;;;;;;11.00;9.75;;;;;;;18.75;30.15;102854.03;7313602;19;129576;-50
2022/03/21 03:31:25;;;;;;;11.85;10.35;;;;;;;18.75;30.08;102855.97;7313437;19;131075;-50
2022/03/21 03:33:53;;;;;;;11.27;10.15;;;;;;;18.73;30.10;102864.47;7312965;19;132071;-49
2022/03/21 03:36:20;;;;;;;12.13;10.85;;;;;;;18.72;30.19;102864.69;7313811;19;130880;-54
2022/03/21 03:38:48;;;;;;;11.75;10.45;;;;;;;18.73;29.91;102860.88;7313537;19;128883;-49
2022/03/21 03:41:15;;;;;;;11.45;10.10;;;;;;;18.72;30.08;102862.75;7309346;19;129314;-50
2022/03/21 03:43:45;;;;;;;12.05;10.05;;;;;;;18.70;30.09;102861.25;7315495;19;129570;-52
2022/03/21 03:46:12;;;;;;;11.93;9.82;;;;;;;18.68;29.81;102867.00;7312980;19;131123;-48
2022/03/21 03:48:41;;;;;;;12.82;10.35;;;;;;;18.68;30.20;102868.91;7312689;19;129036;-52
2022/03/21 03:51:08;;;;;;;12.02;10.10;;;;;;;18.68;29.70;102868.91;7313976;19;129152;-51
2022/03/21 03:53:35;;;;;;;11.60;10.18;;;;;;;18.67;29.91;102864.41;7312859;19;130654;-48
2022/03/21 03:56:02;;;;;;;14.77;11.25;;;;;;;18.66;29.93;102868.25;7312598;19;131867;-49
2022/03/21 03:58:29;;;;;;;13.90;11.23;;;;;;;18.64;30.01;102874.00;7314395;19;129314;-48
2022/03/21 04:00:56;;;;;;;11.10;9.98;;;;;;;18.63;29.76;102866.72;7306919;19;129819;-49
2022/03/21 04:06:08;;;;;;;11.45;10.25;;;;;;;18.60;29.93;102873.53;7312587;19;130675;-48
2022/03/21 04:08:35;;;;;;;11.63;10.27;;;;;;;18.59;29.64;102873.72;7312197;19;129343;-53
2022/03/21 04:11:02;;;;;;;12.40;10.63;;;;;;;18.60;29.81;102870.78;7313402;19;129431;-49
2022/03/21 04:13:29;;;;;;;12.07;10.45;;;;;;;18.57;29.81;102873.94;7313682;19;129595;-49
2022/03/21 04:15:55;;;;;;;11.32;10.13;;;;;;;18.56;30.00;102876.91;7312793;19;130385;-55
2022/03/21 04:18:22;;;;;;;13.30;10.23;;;;;;;18.56;29.86;102871.38;7313206;19;129338;-58
2022/03/21 04:21:09;;;;;;;11.93;10.13;;;;;;;18.56;29.93;102879.69;7310479;19;129745;-57
2022/03/21 04:23:36;;;;;;;13.50;10.30;;;;;;;18.54;29.81;102877.09;7312805;19;129605;-55
2022/03/21 04:26:02;;;;;;;14.30;10.27;;;;;;;18.54;29.99;102876.25;7311241;19;130992;-54
2022/03/21 04:28:29;;;;;;;11.15;10.05;;;;;;;18.52;29.61;102876.47;7312742;19;129966;-52
2022/03/21 04:30:56;;;;;;;11.95;10.38;;;;;;;18.52;29.69;102881.13;7313847;19;128946;-50
2022/03/21 04:33:23;;;;;;;11.35;10.15;;;;;;;18.51;29.83;102879.41;7313914;19;129523;-53
2022/03/21 04:35:50;;;;;;;10.90;9.75;;;;;;;18.50;29.94;102880.47;7312960;19;129506;-59
2022/03/21 04:38:17;;;;;;;12.23;10.30;;;;;;;18.50;29.53;102883.25;7312451;19;129314;-54
2022/03/21 04:40:50;;;;;;;10.77;9.68;;;;;;;18.50;29.91;102883.25;7312022;19;128872;-53
2022/03/21 04:43:19;;;;;;;11.68;10.35;;;;;;;18.48;29.89;102885.34;7313752;19;130490;-48
2022/03/21 04:45:47;;;;;;;11.20;10.10;;;;;;;18.47;29.77;102890.03;7313756;19;133804;-57
2022/03/21 04:48:14;;;;;;;11.38;9.73;;;;;;;18.46;29.56;102888.31;7312882;19;129195;-48
2022/03/21 04:50:41;;;;;;;11.13;9.57;;;;;;;18.45;30.13;102895.78;7313428;19;131892;-52
2022/03/21 04:53:10;;;;;;;10.93;9.82;;;;;;;18.48;29.94;102885.34;7311553;19;130919;-56
2022/03/21 04:55:41;;;;;;;9.95;8.70;;;;;;;18.54;29.90;102887.34;7309978;19;129492;-56
2022/03/21 04:58:09;;;;;;;10.30;9.23;;;;;;;18.64;29.77;102896.19;7311988;19;129309;-54
2022/03/21 05:00:38;;;;;;;9.73;8.73;;;;;;;18.82;29.73;102897.63;7311816;19;129790;-53
2022/03/21 05:03:08;;;;;;;8.68;7.78;;;;;;;19.04;29.61;102888.22;7312515;19;131002;-49
2022/03/21 05:05:42;;;;;;;10.00;8.43;;;;;;;19.34;28.99;102892.72;7312109;19;129912;-53
2022/03/21 05:08:09;;;;;;;8.93;7.60;;;;;;;19.64;28.94;102890.56;7311118;19;129212;-50
2022/03/21 05:10:35;;;;;;;10.90;8.13;;;;;;;19.99;28.37;102892.44;7312016;19;128946;-51
2022/03/21 05:13:03;;;;;;;9.38;7.55;;;;;;;20.34;28.49;102895.13;7310505;19;129988;-51
2022/03/21 05:15:31;;;;;;;8.75;7.40;;;;;;;20.66;28.07;102897.34;7309841;19;130708;-60
2022/03/21 05:17:58;;;;;;;9.35;7.57;;;;;;;20.90;27.57;102890.28;7311604;19;130571;-49
2022/03/21 05:20:27;;;;;;;8.90;7.57;;;;;;;21.09;27.00;102896.91;7310664;19;129217;-49
2022/03/21 05:31:11;;;;;;;9.38;7.10;;;;;;;21.30;26.89;102887.47;7310587;19;128841;-48
2022/03/21 05:36:27;;;;;;;8.02;7.03;;;;;;;21.20;27.35;102893.47;7311264;19;129636;-52
2022/03/21 05:38:57;;;;;;;8.05;7.00;;;;;;;21.15;27.18;102890.50;7308745;19;129005;-48
2022/03/21 05:41:25;;;;;;;9.57;7.05;;;;;;;21.08;27.24;102895.22;7311547;19;128904;-50
2022/03/21 05:43:52;;;;;;;7.38;6.68;;;;;;;21.01;27.19;102902.72;7310207;19;130667;-49
2022/03/21 05:46:19;;;;;;;8.48;7.13;;;;;;;20.93;27.36;102903.78;7309721;19;130295;-50
2022/03/21 05:48:59;;;;;;;8.23;7.40;;;;;;;20.86;27.40;102898.22;7310623;19;130059;-49
2022/03/21 05:51:29;;;;;;;9.48;7.35;;;;;;;20.77;27.29;102898.63;7310837;19;129839;-52
2022/03/21 05:54:05;;;;;;;9.98;7.47;;;;;;;20.70;27.69;102895.81;7310447;19;129683;-50
2022/03/21 05:56:33;;;;;;;10.50;8.17;;;;;;;20.62;27.84;102901.59;7310718;19;130430;-47
2022/03/21 06:00:20;;;;;;;8.15;6.97;;;;;;;20.54;27.39;102908.22;7310983;19;129929;-50
2022/03/21 06:01:48;;;;;;;9.05;7.25;;;;;;;20.47;27.95;102908.19;7310117;19;129375;-51
2022/03/21 06:04:15;;;;;;;8.23;6.82;;;;;;;20.40;27.86;102904.56;7308652;19;129556;-52
2022/03/21 06:06:43;;;;;;;12.02;7.32;;;;;;;20.34;27.76;102911.81;7307908;19;130036;-49
2022/03/21 06:09:10;;;;;;;14.20;7.75;;;;;;;20.30;27.62;102921.63;7306083;19;129793;-51
2022/03/21 06:11:37;;;;;;;12.10;7.38;;;;;;;20.23;27.92;102915.19;7310134;19;129254;-51
2022/03/21 06:14:04;;;;;;;10.75;7.30;;;;;;;20.18;27.94;102921.38;7308910;19;131059;-49
2022/03/21 06:16:32;;;;;;;10.80;8.00;;;;;;;20.15;28.03;102921.78;7310044;19;131452;-49
2022/03/21 06:19:00;;;;;;;9.85;7.90;;;;;;;20.10;28.15;102927.09;7310241;19;129548;-49
2022/03/21 06:21:30;;;;;;;8.55;6.97;;;;;;;20.06;28.39;102931.38;7308023;19;129027;-51
2022/03/21 06:23:57;;;;;;;12.82;7.82;;;;;;;20.02;28.38;102932.84;7309965;19;130298;-48
2022/03/21 06:26:27;;;;;;;9.48;7.20;;;;;;;19.99;28.15;102934.97;7309182;19;130834;-48
2022/03/21 06:28:54;;;;;;;13.38;7.25;;;;;;;19.96;28.56;102935.34;7309768;19;129278;-47
2022/03/21 06:31:21;;;;;;;9.02;7.30;;;;;;;19.94;28.68;102948.59;7308888;19;129579;-50
2022/03/21 06:33:48;;;;;;;10.73;7.32;;;;;;;19.90;28.18;102947.31;7308995;19;131154;-53
2022/03/21 06:36:14;;;;;;;11.20;6.68;;;;;;;19.88;28.43;102943.88;7307103;19;130794;-50
2022/03/21 06:38:41;;;;;;;11.48;7.03;;;;;;;19.86;28.51;102943.22;7307997;19;130425;-48
2022/03/21 06:41:08;;;;;;;11.27;6.70;;;;;;;19.84;28.32;102948.97;7309657;19;129237;-50
2022/03/21 06:43:35;;;;;;;11.57;7.45;;;;;;;19.84;28.70;102950.88;7309561;19;132268;-48
2022/03/21 06:46:05;;;;;;;10.25;6.80;;;;;;;19.82;28.41;102948.31;7308135;19;129980;-50
2022/03/21 06:48:34;;;;;;;11.05;8.15;;;;;;;19.81;28.54;102951.31;7307921;19;129215;-49
2022/03/21 06:51:01;;;;;;;12.20;7.78;;;;;;;19.79;28.85;102953.44;7311857;19;131170;-51
2022/03/21 06:53:28;;;;;;;11.05;7.13;;;;;;;19.80;28.96;102949.59;7313821;19;131077;-51
2022/03/21 06:55:54;;;;;;;11.50;6.65;;;;;;;19.80;29.09;102952.38;7312150;19;130028;-47
2022/03/21 06:58:21;;;;;;;8.38;6.63;;;;;;;19.81;28.96;102956.88;7316008;19;129430;-49
2022/03/21 07:00:48;;;;;;;9.80;7.25;;;;;;;19.82;29.09;102953.00;7315149;19;129339;-51
2022/03/21 07:03:16;;;;;;;11.10;7.25;;;;;;;19.83;28.69;102961.16;7315510;19;130145;-50
2022/03/21 07:05:44;;;;;;;10.15;7.93;;;;;;;19.84;28.51;102957.31;7314840;19;130668;-48
2022/03/21 07:08:11;;;;;;;10.48;7.82;;;;;;;19.84;28.60;102951.75;7314496;19;129037;-51
2022/03/21 07:10:44;;;;;;;10.00;7.32;;;;;;;19.87;28.59;102957.97;7315821;19;129075;-49
2022/03/21 07:13:12;;;;;;;10.65;7.20;;;;;;;19.88;28.72;102956.91;7311228;19;130439;-48
2022/03/21 07:15:38;;;;;;;10.38;7.00;;;;;;;19.89;29.12;102956.69;7312971;19;130194;-49
2022/03/21 07:18:06;;;;;;;10.43;7.30;;;;;;;19.91;29.14;102956.47;7314330;19;130089;-48
2022/03/21 07:20:32;;;;;;;10.13;6.88;;;;;;;19.90;29.12;102963.97;7313459;19;129369;-47
2022/03/21 07:23:00;;;;;;;9.35;6.80;;;;;;;19.93;28.99;102966.34;7314107;19;131194;-51
2022/03/21 07:25:27;;;;;;;11.13;7.30;;;;;;;19.94;28.93;102968.03;7313863;19;130514;-49
2022/03/21 07:27:54;;;;;;;8.88;7.22;;;;;;;19.95;28.93;102964.19;7311681;19;131248;-49
2022/03/21 07:30:21;;;;;;;11.00;7.50;;;;;;;19.98;29.00;102974.91;7313335;19;129089;-47
2022/03/21 07:32:48;;;;;;;8.48;6.88;;;;;;;19.99;28.84;102961.88;7314830;19;129925;-50
2022/03/21 07:35:14;;;;;;;11.20;7.50;;;;;;;20.01;28.94;102961.69;7313945;19;129995;-50
2022/03/21 07:37:46;;;;;;;12.00;7.65;;;;;;;20.03;28.65;102967.91;7313396;19;128842;-46
2022/03/21 07:40:14;;;;;;;9.80;7.07;;;;;;;20.04;28.61;102966.84;7314403;19;130114;-48
2022/03/21 07:42:42;;;;;;;12.02;7.40;;;;;;;20.04;28.81;102956.59;7314361;19;129712;-52
2022/03/21 07:47:57;;;;;;;8.47;6.97;;;;;;;20.08;28.89;102966.22;7315094;19;129411;-49
2022/03/21 07:50:23;;;;;;;11.27;6.88;;;;;;;20.12;29.01;102969.44;7314562;19;128992;-48
2022/03/21 07:52:54;;;;;;;10.82;7.13;;;;;;;20.14;28.82;102964.53;7314192;19;130295;-51
2022/03/21 07:55:21;;;;;;;14.95;7.38;;;;;;;20.17;28.51;102975.25;7313228;19;130047;-48
2022/03/21 07:57:48;;;;;;;9.77;7.18;;;;;;;20.19;28.64;102966.69;7314794;19;129217;-48
2022/03/21 08:00:16;;;;;;;8.93;6.97;;;;;;;20.22;28.38;102967.13;7314480;19;129295;-48
2022/03/21 08:02:43;;;;;;;15.82;7.05;;;;;;;20.26;28.33;102962.88;7312589;19;130018;-49
2022/03/21 08:05:11;;;;;;;10.88;6.55;;;;;;;20.34;28.46;102967.41;7314706;19;129570;-48
2022/03/21 08:07:38;;;;;;;8.35;6.13;;;;;;;20.48;28.62;102973.00;7313889;19;129173;-50
2022/03/21 08:10:05;;;;;;;9.82;6.55;;;;;;;20.84;28.05;102977.41;7311382;19;129407;-50
2022/03/21 08:12:42;;;;;;;7.47;6.32;;;;;;;21.80;26.79;102976.09;7314600;19;129966;-51
2022/03/21 08:15:13;;;;;;;8.15;6.50;;;;;;;23.60;25.21;102983.63;7313110;19;129972;-49
2022/03/21 08:17:57;;;;;;;9.30;6.53;;;;;;;24.86;23.39;102985.03;7314166;19;128861;-49
2022/03/21 08:20:26;;;;;;;10.23;6.45;;;;;;;25.74;22.37;102990.03;7314054;19;129768;-51
2022/03/21 08:22:53;;;;;;;8.00;6.10;;;;;;;26.20;21.74;102975.38;7313415;19;130831;-50
2022/03/21 08:25:20;;;;;;;11.02;6.57;;;;;;;26.18;21.88;102980.38;7313547;19;129502;-49
2022/03/21 08:27:48;;;;;;;8.60;6.25;;;;;;;25.22;22.50;102981.50;7311174;19;129371;-49
2022/03/21 08:30:16;;;;;;;7.88;5.90;;;;;;;24.38;23.26;102972.84;7314381;19;128915;-49
2022/03/21 08:32:45;;;;;;;8.43;6.50;;;;;;;23.84;23.85;102972.63;7313515;19;131284;-50
2022/03/21 08:35:13;;;;;;;9.82;6.68;;;;;;;23.37;24.35;102983.41;7313510;19;129561;-48
2022/03/21 08:37:40;;;;;;;10.23;6.25;;;;;;;22.97;24.75;102974.28;7311252;19;129327;-50
2022/03/21 08:40:10;;;;;;;8.48;6.03;;;;;;;22.65;24.88;102977.03;7313665;19;128779;-48
2022/03/21 08:42:37;;;;;;;10.85;6.70;;;;;;;22.39;25.74;102972.47;7313923;19;129538;-49
2022/03/21 08:45:05;;;;;;;9.30;6.15;;;;;;;22.17;25.47;102967.19;7312753;19;129498;-49
2022/03/21 08:47:34;;;;;;;10.65;6.32;;;;;;;21.96;25.95;102973.91;7312028;19;129177;-48
2022/03/21 08:50:03;;;;;;;8.88;5.72;;;;;;;21.79;26.35;102966.00;7313569;19;129849;-47
2022/03/21 08:52:30;;;;;;;11.02;6.47;;;;;;;21.65;26.36;102972.72;7313526;19;130311;-52
2022/03/21 08:54:57;;;;;;;8.48;5.75;;;;;;;21.53;26.41;102972.50;7313079;19;129460;-49
2022/03/21 08:57:24;;;;;;;9.30;6.68;;;;;;;21.41;26.64;102969.50;7309448;19;129616;-50
2022/03/21 08:59:52;;;;;;;9.27;6.07;;;;;;;21.31;27.13;102967.16;7313264;19;128990;-48
2022/03/21 09:02:20;;;;;;;9.25;5.80;;;;;;;21.22;27.05;102974.84;7312510;19;132827;-51
2022/03/21 09:04:47;;;;;;;8.40;5.80;;;;;;;21.14;26.94;102972.28;7312831;19;131179;-49
2022/03/21 09:07:14;;;;;;;8.70;6.18;;;;;;;21.08;27.45;102966.72;7310468;19;129630;-48
2022/03/21 09:09:41;;;;;;;7.28;5.72;;;;;;;21.00;27.57;102959.44;7313493;19;129529;-48
2022/03/21 09:12:08;;;;;;;8.77;5.80;;;;;;;20.94;27.26;102963.06;7311095;19;130280;-50
2022/03/21 09:14:36;;;;;;;6.47;5.60;;;;;;;20.87;27.63;102955.56;7313256;19;130297;-50
2022/03/21 09:17:03;;;;;;;6.32;5.30;;;;;;;20.81;27.69;102961.97;7311364;19;128961;-48
2022/03/21 09:19:30;;;;;;;9.05;6.45;;;;;;;20.76;27.91;102953.44;7312704;19;129095;-51
2022/03/21 09:21:58;;;;;;;6.78;5.47;;;;;;;20.70;28.00;102949.53;7309728;19;129812;-51
2022/03/21 09:24:24;;;;;;;12.00;5.82;;;;;;;20.67;28.05;102957.44;7311859;19;130020;-49
2022/03/21 09:26:52;;;;;;;8.77;6.10;;;;;;;20.62;27.96;102962.78;7310090;19;129419;-48
2022/03/21 09:29:19;;;;;;;8.10;5.30;;;;;;;20.57;28.15;102964.25;7311243;19;130481;-46
2022/03/21 09:31:47;;;;;;;9.25;5.60;;;;;;;20.54;27.89;102961.91;7311925;19;130703;-50
2022/03/21 09:34:16;;;;;;;9.60;6.05;;;;;;;20.49;28.29;102961.66;7311192;19;129652;-49
2022/03/21 09:36:44;;;;;;;6.90;5.65;;;;;;;20.46;28.33;102953.75;7310757;19;129669;-51
2022/03/21 09:39:12;;;;;;;9.10;5.80;;;;;;;20.42;28.23;102958.03;7311765;19;129790;-48
2022/03/21 09:41:39;;;;;;;9.75;6.43;;;;;;;20.39;28.61;102955.66;7311482;19;130182;-49
2022/03/21 09:44:09;;;;;;;8.98;6.20;;;;;;;20.35;28.40;102954.34;7311265;19;130837;-49
2022/03/21 09:46:42;;;;;;;7.70;5.80;;;;;;;20.32;28.48;102952.84;7311891;19;128816;-48
2022/03/21 09:49:16;;;;;;;7.93;5.57;;;;;;;20.29;28.57;102950.47;7311690;19;129419;-49
2022/03/21 09:51:44;;;;;;;8.40;5.72;;;;;;;20.24;28.67;102951.13;7311806;19;130304;-52
2022/03/21 09:54:11;;;;;;;7.97;5.85;;;;;;;20.21;28.48;102951.53;7311548;19;129479;-49
2022/03/21 09:56:41;;;;;;;8.38;5.30;;;;;;;20.18;28.68;102946.41;7309559;19;129804;-48
2022/03/21 09:59:08;;;;;;;9.02;5.72;;;;;;;20.16;28.77;102950.44;7312042;19;129334;-50
2022/03/21 10:01:36;;;;;;;9.15;5.70;;;;;;;20.12;28.84;102950.84;7311771;19;130292;-49
2022/03/21 10:04:06;;;;;;;8.15;5.25;;;;;;;20.11;28.77;102945.50;7310631;19;129532;-52
2022/03/21 10:06:40;;;;;;;7.78;5.10;;;;;;;20.08;29.13;102937.56;7311141;19;128932;-49
2022/03/21 10:09:19;;;;;;;6.32;5.00;;;;;;;20.06;29.21;102942.50;7310804;19;131141;-48
2022/03/21 10:11:50;;;;;;;9.43;5.50;;;;;;;20.02;28.80;102936.47;7310795;19;130845;-52
2022/03/21 10:14:22;;;;;;;8.05;5.68;;;;;;;19.99;29.08;102937.75;7308959;19;129459;-48
2022/03/21 10:16:57;;;;;;;8.00;5.45;;;;;;;19.96;28.99;102935.34;7309257;19;129678;-51
2022/03/21 10:19:24;;;;;;;8.57;5.47;;;;;;;19.93;28.97;102933.00;7311058;19;129487;-50
2022/03/21 10:22:11;;;;;;;7.88;5.38;;;;;;;19.91;29.16;102935.13;7307657;19;129276;-48
2022/03/21 10:24:41;;;;;;;9.20;5.87;;;;;;;19.89;29.24;102930.81;7311879;19;129283;-48
2022/03/21 10:27:28;;;;;;;9.98;6.18;;;;;;;19.86;29.32;102926.53;7316139;19;128878;-48
2022/03/21 10:30:00;;;;;;;6.60;5.53;;;;;;;19.83;29.61;102932.50;7317766;19;129462;-48
2022/03/21 10:32:37;;;;;;;8.82;5.55;;;;;;;19.81;29.44;102929.94;7316616;19;130001;-48
2022/03/21 10:35:12;;;;;;;7.22;5.70;;;;;;;19.79;29.18;102936.78;7316820;19;129823;-50
2022/03/21 10:37:50;;;;;;;6.55;5.57;;;;;;;19.77;29.28;102933.34;7314355;19;129004;-48
2022/03/21 10:40:21;;;;;;;7.03;5.30;;;;;;;19.74;29.68;102934.63;7314966;19;128914;-53
2022/03/21 10:42:50;;;;;;;5.18;4.68;;;;;;;19.74;29.42;102928.19;7316624;19;130547;-48
2022/03/21 10:45:17;;;;;;;8.85;5.45;;;;;;;19.72;29.84;102922.84;7314453;19;130205;-52
2022/03/21 10:47:51;;;;;;;6.00;5.35;;;;;;;19.71;29.80;102928.59;7316458;19;129229;-49
2022/03/21 10:50:35;;;;;;;6.97;5.65;;;;;;;19.68;29.85;102927.09;7316168;19;129028;-49
2022/03/21 10:53:06;;;;;;;6.82;5.32;;;;;;;19.66;29.68;102918.97;7316274;19;130422;-50
2022/03/21 10:55:33;;;;;;;6.53;5.00;;;;;;;19.63;29.86;102922.16;7316154;19;129541;-49
2022/03/21 10:58:00;;;;;;;6.60;5.10;;;;;;;19.62;29.78;102920.44;7313885;19;129387;-49
2022/03/21 11:00:28;;;;;;;6.45;5.13;;;;;;;19.60;30.01;102911.44;7316277;19;129358;-47
2022/03/21 11:03:06;;;;;;;6.22;5.15;;;;;;;19.60;29.65;102910.59;7316612;19;130462;-47
2022/03/21 11:05:38;;;;;;;6.72;5.00;;;;;;;19.57;29.69;102911.84;7316277;19;130547;-51
2022/03/21 11:08:06;;;;;;;6.45;4.70;;;;;;;19.56;29.64;102910.16;7315942;19;129327;-51
2022/03/21 11:10:33;;;;;;;5.75;4.80;;;;;;;19.55;30.03;102911.22;7316121;19;129513;-48
2022/03/21 11:13:02;;;;;;;7.00;5.05;;;;;;;19.52;29.83;102909.69;7315577;19;129628;-49
2022/03/21 11:15:31;;;;;;;6.53;5.32;;;;;;;19.51;30.06;102907.13;7315631;19;129556;-50
2022/03/21 11:17:58;;;;;;;6.35;5.45;;;;;;;19.49;30.23;102898.16;7314158;19;129594;-48
2022/03/21 11:20:28;;;;;;;5.72;5.13;;;;;;;19.49;29.93;102898.16;7314547;19;130713;-50
2022/03/21 11:22:56;;;;;;;6.50;5.07;;;;;;;19.49;30.25;102895.38;7314927;19;129446;-47
2022/03/21 11:25:28;;;;;;;6.43;4.90;;;;;;;19.47;30.10;102901.13;7316317;19;129655;-48
2022/03/21 11:28:23;;;;;;;6.50;5.15;;;;;;;19.46;30.02;102893.00;7314270;19;129449;-50
2022/03/21 11:31:15;;;;;;;7.40;4.93;;;;;;;19.45;30.16;102896.84;7315538;19;129347;-49
2022/03/21 11:34:01;;;;;;;7.47;4.85;;;;;;;19.46;29.88;102895.78;7315193;19;130287;-49
2022/03/21 11:36:30;;;;;;;6.45;4.95;;;;;;;19.44;30.01;102900.69;7312777;19;129529;-49
2022/03/21 11:39:03;;;;;;;5.90;4.57;;;;;;;19.42;30.18;102897.25;7314582;19;129083;-51